createdAt,value
2022-12-11T00:01:39.862Z,14.02
2022-12-11T00:05:32.699Z,14.38
2022-12-11T00:09:25.240Z,13.82
2022-12-11T00:13:17.953Z,13.98
2022-12-11T00:17:10.789Z,14.18
2022-12-11T00:21:05.577Z,12.88
2022-12-11T00:24:58.252Z,13.77
2022-12-11T00:28:56.775Z,13.05
2022-12-11T00:32:52.088Z,12.68
2022-12-11T00:36:44.853Z,13.00
2022-12-11T00:40:37.628Z,13.30
2022-12-11T00:44:30.245Z,12.80
2022-12-11T00:48:23.129Z,12.27
2022-12-11T00:52:18.181Z,11.80
2022-12-11T00:56:17.005Z,11.90
2022-12-11T01:00:10.427Z,11.13
2022-12-11T01:04:03.094Z,11.82
2022-12-11T01:07:57.011Z,11.35
2022-12-11T01:11:49.903Z,10.93
2022-12-11T01:15:45.513Z,11.32
2022-12-11T01:19:38.351Z,10.68
2022-12-11T01:23:31.513Z,12.00
2022-12-11T01:27:24.100Z,11.48
2022-12-11T01:31:19.497Z,10.60
2022-12-11T01:35:13.104Z,10.57
2022-12-11T01:39:05.801Z,9.13
2022-12-11T01:42:58.617Z,10.05
2022-12-11T01:46:51.658Z,9.75
2022-12-11T01:50:58.642Z,10.30
2022-12-11T01:54:51.529Z,9.80
2022-12-11T01:58:51.974Z,9.32
2022-12-11T02:02:44.941Z,9.10
2022-12-11T02:06:47.424Z,8.35
2022-12-11T02:11:02.282Z,7.22
2022-12-11T02:15:07.015Z,7.30
2022-12-11T02:19:14.896Z,6.95
2022-12-11T02:23:13.577Z,7.70
2022-12-11T02:27:21.330Z,7.03
2022-12-11T02:31:34.770Z,6.45
2022-12-11T02:35:42.738Z,6.30
2022-12-11T02:43:32.845Z,5.80
2022-12-11T02:47:28.527Z,6.40
2022-12-11T02:51:26.234Z,5.88
2022-12-11T02:55:20.080Z,5.78
2022-12-11T02:59:21.698Z,6.47
2022-12-11T03:03:15.212Z,5.85
2022-12-11T03:07:15.877Z,6.07
2022-12-11T03:11:12.038Z,6.05
2022-12-11T03:15:10.552Z,6.25
2022-12-11T03:19:38.685Z,5.80
2022-12-11T03:23:37.200Z,4.97
2022-12-11T03:27:52.393Z,5.25
2022-12-11T03:31:57.727Z,5.35
2022-12-11T03:35:59.254Z,4.90
2022-12-11T03:39:57.177Z,5.22
2022-12-11T03:43:53.505Z,5.60
2022-12-11T03:47:47.669Z,5.45
2022-12-11T03:51:42.466Z,5.88
2022-12-11T03:55:37.802Z,5.00
2022-12-11T03:59:30.416Z,5.57
2022-12-11T04:03:22.947Z,5.22
2022-12-11T04:07:15.743Z,4.95
2022-12-11T04:11:26.834Z,5.60
2022-12-11T04:15:19.355Z,5.47
2022-12-11T04:19:30.423Z,4.55
2022-12-11T04:23:42.160Z,5.15
2022-12-11T04:27:49.798Z,5.30
2022-12-11T04:31:42.700Z,5.18
2022-12-11T04:35:36.517Z,4.72
2022-12-11T04:39:29.307Z,4.75
2022-12-11T04:43:21.604Z,4.80
2022-12-11T04:47:14.713Z,4.68
2022-12-11T04:51:08.955Z,5.47
2022-12-11T04:55:01.605Z,4.93
2022-12-11T04:58:54.544Z,4.97
2022-12-11T05:02:47.311Z,4.82
2022-12-11T05:06:39.945Z,4.75
2022-12-11T05:10:32.585Z,5.07
2022-12-11T05:14:26.378Z,4.57
2022-12-11T05:18:18.927Z,4.75
2022-12-11T05:22:11.636Z,5.00
2022-12-11T05:26:07.758Z,4.88
2022-12-11T05:30:00.487Z,4.78
2022-12-11T05:33:54.376Z,4.60
2022-12-11T05:37:46.649Z,5.07
2022-12-11T05:41:39.392Z,4.72
2022-12-11T05:45:32.021Z,4.65
2022-12-11T05:49:30.552Z,4.65
2022-12-11T05:53:24.364Z,4.72
2022-12-11T05:57:17.447Z,5.78
2022-12-11T06:01:19.437Z,6.10
2022-12-11T06:05:12.206Z,7.32
2022-12-11T06:09:05.629Z,7.88
2022-12-11T06:12:58.277Z,7.70
2022-12-11T06:16:51.092Z,7.97
2022-12-11T06:20:44.001Z,7.75
2022-12-11T06:24:36.918Z,8.75
2022-12-11T06:28:29.502Z,8.00
2022-12-11T06:32:22.256Z,9.48
2022-12-11T06:36:20.146Z,7.65
2022-12-11T06:40:13.381Z,7.28
2022-12-11T06:44:06.078Z,7.57
2022-12-11T06:47:59.094Z,7.15
2022-12-11T06:51:51.846Z,6.68
2022-12-11T06:55:44.699Z,6.32
2022-12-11T06:59:37.479Z,5.90
2022-12-11T07:03:30.350Z,6.10
2022-12-11T07:07:23.047Z,6.20
2022-12-11T07:11:17.799Z,6.32
2022-12-11T07:15:10.972Z,6.00
2022-12-11T07:19:03.977Z,4.55
2022-12-11T07:22:56.420Z,5.20
2022-12-11T07:26:49.161Z,5.45
2022-12-11T07:30:41.733Z,5.10
2022-12-11T07:34:34.271Z,5.78
2022-12-11T07:38:27.224Z,5.80
2022-12-11T07:42:19.973Z,4.68
2022-12-11T07:46:15.228Z,5.63
2022-12-11T07:50:08.553Z,4.95
2022-12-11T07:54:05.172Z,4.97
2022-12-11T07:57:57.775Z,4.60
2022-12-11T08:01:51.706Z,4.10
2022-12-11T08:05:50.254Z,4.03
2022-12-11T08:09:42.833Z,4.30
2022-12-11T08:13:36.162Z,3.58
2022-12-11T08:17:30.951Z,4.15
2022-12-11T08:21:28.475Z,4.63
2022-12-11T08:25:21.455Z,5.32
2022-12-11T08:29:14.811Z,3.30
2022-12-11T08:33:07.665Z,3.70
2022-12-11T08:37:06.063Z,3.63
2022-12-11T08:40:59.632Z,4.53
2022-12-11T08:44:52.331Z,3.47
2022-12-11T08:48:45.211Z,3.90
2022-12-11T08:52:37.732Z,3.97
2022-12-11T08:56:30.718Z,3.80
2022-12-11T09:00:23.387Z,3.33
2022-12-11T09:04:16.235Z,3.72
2022-12-11T09:08:08.783Z,3.33
2022-12-11T09:12:01.919Z,2.95
2022-12-11T09:15:54.644Z,3.30
2022-12-11T09:19:47.234Z,3.03
2022-12-11T09:23:40.645Z,3.25
2022-12-11T09:27:34.691Z,4.00
2022-12-11T09:31:30.607Z,5.95
2022-12-11T09:35:23.334Z,3.33
2022-12-11T09:39:18.012Z,3.08
2022-12-11T09:43:25.676Z,3.15
2022-12-11T09:47:27.964Z,3.28
2022-12-11T09:51:29.533Z,3.30
2022-12-11T09:55:25.024Z,3.58
2022-12-11T09:59:32.523Z,4.53
2022-12-11T10:03:50.428Z,3.58
2022-12-11T10:07:50.963Z,3.15
2022-12-11T10:11:56.337Z,3.85
2022-12-11T10:16:04.367Z,3.15
2022-12-11T10:20:00.929Z,3.17
2022-12-11T10:24:01.161Z,3.97
2022-12-11T10:27:54.163Z,6.13
2022-12-11T10:31:59.275Z,3.70
2022-12-11T10:35:55.409Z,4.13
2022-12-11T10:39:47.993Z,4.13
2022-12-11T10:43:44.004Z,6.30
2022-12-11T10:47:36.792Z,5.60
2022-12-11T10:51:33.296Z,6.50
2022-12-11T10:55:34.472Z,4.07
2022-12-11T10:59:46.398Z,4.22
2022-12-11T11:03:53.904Z,4.72
2022-12-11T11:07:46.671Z,4.82
2022-12-11T11:11:39.760Z,5.22
2022-12-11T11:15:32.773Z,4.47
2022-12-11T11:19:31.478Z,4.35
2022-12-11T11:23:25.528Z,3.72
2022-12-11T11:27:30.260Z,3.85
2022-12-11T11:31:34.812Z,4.25
2022-12-11T11:35:29.322Z,4.22
2022-12-11T11:39:45.338Z,4.32
2022-12-11T11:43:43.861Z,4.53
2022-12-11T11:47:54.046Z,4.75
2022-12-11T11:51:56.604Z,6.32
2022-12-11T11:56:08.199Z,4.35
2022-12-11T12:00:15.630Z,4.53
2022-12-11T12:04:09.469Z,4.15
2022-12-11T12:08:17.456Z,3.95
2022-12-11T12:12:33.794Z,4.13
2022-12-11T12:16:56.335Z,3.60
2022-12-11T12:21:00.467Z,4.55
2022-12-11T12:25:18.902Z,4.80
2022-12-11T12:29:33.690Z,3.85
2022-12-11T12:33:31.191Z,4.32
2022-12-11T12:37:49.354Z,4.25
2022-12-11T12:41:48.315Z,4.32
2022-12-11T12:46:04.669Z,4.35
2022-12-11T12:50:00.425Z,4.45
2022-12-11T12:53:58.982Z,4.45
2022-12-11T12:58:00.701Z,4.47
2022-12-11T13:02:02.756Z,4.75
2022-12-11T13:05:59.921Z,5.07
2022-12-11T13:10:04.921Z,6.90
2022-12-11T13:14:15.673Z,9.57
2022-12-11T13:18:32.835Z,5.07
2022-12-11T13:22:25.743Z,4.05
2022-12-11T13:26:36.671Z,5.15
2022-12-11T13:30:30.382Z,8.05
2022-12-11T13:34:24.361Z,6.28
2022-12-11T13:38:20.807Z,7.85
2022-12-11T13:42:40.973Z,9.10
2022-12-11T13:46:36.931Z,6.85
2022-12-11T13:50:33.482Z,16.88
2022-12-11T13:54:29.118Z,13.15
2022-12-11T13:58:23.892Z,17.98
2022-12-11T14:02:28.161Z,6.85
2022-12-11T14:06:21.277Z,11.32
2022-12-11T14:10:24.994Z,8.63
2022-12-11T14:14:25.686Z,10.45
2022-12-11T14:18:23.138Z,13.90
2022-12-11T14:22:21.110Z,10.30
2022-12-11T14:26:28.615Z,8.88
2022-12-11T14:30:33.996Z,10.30
2022-12-11T14:34:47.951Z,7.60
2022-12-11T14:38:47.728Z,8.80
2022-12-11T14:42:46.155Z,8.82
2022-12-11T14:46:44.087Z,8.98
2022-12-11T14:50:43.856Z,7.97
2022-12-11T14:54:42.035Z,7.15
2022-12-11T14:58:42.876Z,9.00
2022-12-11T15:02:37.605Z,7.70
2022-12-11T15:06:36.309Z,7.93
2022-12-11T15:10:59.881Z,9.20
2022-12-11T15:14:57.058Z,7.45
2022-12-11T15:18:52.094Z,8.32
2022-12-11T15:22:45.315Z,7.15
2022-12-11T15:26:44.260Z,8.55
2022-12-11T15:30:37.065Z,6.80
2022-12-11T15:34:53.227Z,6.47
2022-12-11T15:38:49.107Z,6.88
2022-12-11T15:42:42.637Z,8.38
2022-12-11T15:46:38.310Z,7.43
2022-12-11T15:50:31.564Z,7.10
2022-12-11T15:54:24.471Z,6.57
2022-12-11T15:58:21.313Z,8.13
2022-12-11T16:02:14.328Z,7.57
2022-12-11T16:06:07.334Z,9.13
2022-12-11T16:10:00.377Z,7.22
2022-12-11T16:13:53.347Z,8.80
2022-12-11T16:17:45.998Z,8.10
2022-12-11T16:21:38.847Z,7.15
2022-12-11T16:25:33.127Z,7.85
2022-12-11T16:29:26.332Z,8.15
2022-12-11T16:33:20.000Z,7.60
2022-12-11T16:37:14.390Z,7.50
2022-12-11T16:41:07.379Z,7.07
2022-12-11T16:45:11.039Z,6.53
2022-12-11T16:49:04.945Z,7.18
2022-12-11T16:52:58.046Z,7.95
2022-12-11T16:56:51.433Z,8.95
2022-12-11T17:00:44.508Z,8.05
2022-12-11T17:04:40.866Z,6.55
2022-12-11T17:08:33.874Z,8.18
2022-12-11T17:12:28.718Z,9.70
2022-12-11T17:16:22.549Z,9.55
2022-12-11T17:20:15.979Z,10.35
2022-12-11T17:24:10.848Z,8.60
2022-12-11T17:28:03.897Z,7.95
2022-12-11T17:31:57.341Z,7.78
2022-12-11T17:35:50.777Z,8.43
2022-12-11T17:39:44.770Z,7.78
2022-12-11T17:43:37.998Z,6.53
2022-12-11T17:47:31.717Z,6.68
2022-12-11T17:51:25.435Z,7.70
2022-12-11T17:55:18.334Z,6.90
2022-12-11T17:59:11.496Z,7.53
2022-12-11T18:03:05.425Z,7.60
2022-12-11T18:07:00.146Z,7.90
2022-12-11T18:10:54.692Z,6.30
2022-12-11T18:14:47.530Z,7.22
2022-12-11T18:18:41.352Z,8.02
2022-12-11T18:22:35.161Z,7.15
2022-12-11T18:26:28.693Z,7.82
2022-12-11T18:30:24.194Z,8.93
2022-12-11T18:34:25.929Z,7.45
2022-12-11T18:38:19.118Z,8.00
2022-12-11T18:46:26.651Z,8.82
2022-12-11T18:50:19.877Z,8.07
2022-12-11T18:54:14.248Z,8.65
2022-12-11T18:58:09.537Z,9.20
2022-12-11T19:02:03.195Z,8.75
2022-12-11T19:05:58.527Z,9.40
2022-12-11T19:09:52.014Z,11.10
2022-12-11T19:13:46.434Z,12.63
2022-12-11T19:17:40.124Z,10.38
2022-12-11T19:21:40.526Z,9.98
2022-12-11T19:25:34.603Z,8.77
2022-12-11T19:29:32.867Z,9.25
2022-12-11T19:33:26.313Z,10.07
2022-12-11T19:37:20.415Z,10.80
2022-12-11T19:41:32.360Z,11.23
2022-12-11T19:45:25.625Z,11.43
2022-12-11T19:49:19.897Z,11.52
2022-12-11T19:53:13.759Z,11.57
2022-12-11T19:57:07.224Z,12.23
2022-12-11T20:01:01.620Z,10.57
2022-12-11T20:04:55.880Z,11.60
2022-12-11T20:08:50.177Z,11.55
2022-12-11T20:12:44.764Z,11.18
2022-12-11T20:20:52.873Z,11.35
2022-12-11T20:24:46.547Z,11.35
2022-12-11T20:28:40.423Z,11.93
2022-12-11T20:32:35.189Z,12.25
2022-12-11T20:36:30.137Z,11.65
2022-12-11T20:40:23.419Z,11.40
2022-12-11T20:44:16.617Z,12.10
2022-12-11T20:48:10.039Z,12.27
2022-12-11T20:52:05.214Z,14.30
2022-12-11T20:55:58.548Z,14.32
2022-12-11T20:59:51.902Z,13.80
2022-12-11T21:03:46.361Z,13.63
2022-12-11T21:07:41.127Z,12.63
2022-12-11T21:11:34.646Z,17.55
2022-12-11T21:15:27.443Z,15.02
2022-12-11T21:19:24.133Z,14.55
2022-12-11T21:23:17.584Z,20.40
2022-12-11T21:27:11.516Z,11.75
2022-12-11T21:31:12.148Z,11.02
2022-12-11T21:35:05.670Z,11.80
2022-12-11T21:39:00.096Z,11.48
2022-12-11T21:42:53.385Z,11.07
2022-12-11T21:46:46.643Z,11.52
2022-12-11T21:50:40.540Z,11.65
2022-12-11T21:54:33.575Z,11.32
2022-12-11T21:58:26.180Z,11.57
2022-12-11T22:02:18.814Z,10.77
2022-12-11T22:06:11.939Z,10.77
2022-12-11T22:10:05.693Z,11.02
2022-12-11T22:13:58.638Z,10.85
2022-12-11T22:17:51.396Z,11.27
2022-12-11T22:21:44.644Z,10.50
2022-12-11T22:25:37.329Z,10.30
2022-12-11T22:29:29.763Z,9.50
2022-12-11T22:33:22.690Z,9.10
2022-12-11T22:37:15.303Z,9.30
2022-12-11T22:41:24.951Z,10.18
2022-12-11T22:45:17.911Z,8.90
2022-12-11T22:49:10.753Z,10.52
2022-12-11T22:53:04.654Z,9.32
2022-12-11T22:56:57.758Z,8.95
2022-12-11T23:00:50.705Z,8.25
2022-12-11T23:04:43.416Z,8.95
2022-12-11T23:08:36.404Z,9.35
2022-12-11T23:12:29.048Z,8.13
2022-12-11T23:16:26.012Z,8.02
2022-12-11T23:20:19.393Z,7.68
2022-12-11T23:24:11.982Z,7.60
2022-12-11T23:28:04.714Z,8.80
2022-12-11T23:31:59.140Z,8.68
2022-12-11T23:35:51.965Z,9.10
2022-12-11T23:39:44.497Z,8.57
2022-12-11T23:43:38.134Z,8.48
2022-12-11T23:47:31.087Z,9.10
2022-12-11T23:51:25.670Z,8.45
2022-12-11T23:55:18.493Z,8.20
2022-12-11T23:59:14.942Z,9.25
